sensor_id;sensor_type;location;lat;lon;timestamp;P1;durP1;ratioP1;P2;durP2;ratioP2
85849;SDS011;76337;42.850;-0.560;2024-02-21T00:02:07;1.35;;;0.30;;
85849;SDS011;76337;42.850;-0.560;2024-02-21T00:04:32;0.28;;;0.20;;
85849;SDS011;76337;42.850;-0.560;2024-02-21T00:06:58;0.38;;;0.20;;
85849;SDS011;76337;42.850;-0.560;2024-02-21T00:09:24;0.43;;;0.30;;
85849;SDS011;76337;42.850;-0.560;2024-02-21T00:11:50;1.08;;;0.40;;
85849;SDS011;76337;42.850;-0.560;2024-02-21T00:14:15;0.43;;;0.32;;
85849;SDS011;76337;42.850;-0.560;2024-02-21T00:16:41;0.20;;;0.20;;
85849;SDS011;76337;42.850;-0.560;2024-02-21T00:19:07;0.65;;;0.30;;
85849;SDS011;76337;42.850;-0.560;2024-02-21T00:21:33;0.40;;;0.20;;
85849;SDS011;76337;42.850;-0.560;2024-02-21T00:23:58;0.30;;;0.20;;
85849;SDS011;76337;42.850;-0.560;2024-02-21T00:26:24;0.90;;;0.35;;
85849;SDS011;76337;42.850;-0.560;2024-02-21T00:28:51;0.45;;;0.25;;
85849;SDS011;76337;42.850;-0.560;2024-02-21T00:31:17;0.77;;;0.30;;
85849;SDS011;76337;42.850;-0.560;2024-02-21T00:33:42;1.42;;;0.30;;
85849;SDS011;76337;42.850;-0.560;2024-02-21T00:36:08;0.55;;;0.30;;
85849;SDS011;76337;42.850;-0.560;2024-02-21T00:38:34;0.60;;;0.30;;
85849;SDS011;76337;42.850;-0.560;2024-02-21T00:41:00;0.38;;;0.30;;
85849;SDS011;76337;42.850;-0.560;2024-02-21T00:43:25;0.22;;;0.20;;
85849;SDS011;76337;42.850;-0.560;2024-02-21T00:45:51;1.15;;;0.70;;
85849;SDS011;76337;42.850;-0.560;2024-02-21T00:48:17;0.43;;;0.35;;
85849;SDS011;76337;42.850;-0.560;2024-02-21T00:50:42;0.38;;;0.30;;
85849;SDS011;76337;42.850;-0.560;2024-02-21T00:53:08;0.57;;;0.20;;
85849;SDS011;76337;42.850;-0.560;2024-02-21T00:55:35;2.40;;;0.25;;
85849;SDS011;76337;42.850;-0.560;2024-02-21T00:58:01;0.30;;;0.30;;
85849;SDS011;76337;42.850;-0.560;2024-02-21T01:00:26;0.32;;;0.30;;
85849;SDS011;76337;42.850;-0.560;2024-02-21T01:02:52;0.85;;;0.40;;
85849;SDS011;76337;42.850;-0.560;2024-02-21T01:05:18;0.40;;;0.30;;
85849;SDS011;76337;42.850;-0.560;2024-02-21T01:07:45;0.47;;;0.20;;
85849;SDS011;76337;42.850;-0.560;2024-02-21T01:10:11;0.30;;;0.25;;
85849;SDS011;76337;42.850;-0.560;2024-02-21T01:12:36;0.50;;;0.30;;
85849;SDS011;76337;42.850;-0.560;2024-02-21T01:15:03;0.47;;;0.30;;
85849;SDS011;76337;42.850;-0.560;2024-02-21T01:17:29;0.25;;;0.20;;
85849;SDS011;76337;42.850;-0.560;2024-02-21T01:19:55;0.70;;;0.40;;
85849;SDS011;76337;42.850;-0.560;2024-02-21T01:22:21;0.63;;;0.15;;
85849;SDS011;76337;42.850;-0.560;2024-02-21T01:24:47;0.50;;;0.30;;
85849;SDS011;76337;42.850;-0.560;2024-02-21T01:27:12;0.60;;;0.30;;
85849;SDS011;76337;42.850;-0.560;2024-02-21T01:29:38;0.55;;;0.30;;
85849;SDS011;76337;42.850;-0.560;2024-02-21T01:32:04;0.35;;;0.15;;
85849;SDS011;76337;42.850;-0.560;2024-02-21T01:34:30;0.80;;;0.40;;
85849;SDS011;76337;42.850;-0.560;2024-02-21T01:36:56;0.52;;;0.20;;
85849;SDS011;76337;42.850;-0.560;2024-02-21T01:39:21;0.47;;;0.28;;
85849;SDS011;76337;42.850;-0.560;2024-02-21T01:41:47;1.05;;;0.30;;
85849;SDS011;76337;42.850;-0.560;2024-02-21T01:44:13;1.10;;;0.32;;
85849;SDS011;76337;42.850;-0.560;2024-02-21T01:46:39;0.40;;;0.30;;
85849;SDS011;76337;42.850;-0.560;2024-02-21T01:49:05;0.30;;;0.20;;
85849;SDS011;76337;42.850;-0.560;2024-02-21T01:51:31;0.30;;;0.20;;
85849;SDS011;76337;42.850;-0.560;2024-02-21T01:53:57;0.32;;;0.17;;
85849;SDS011;76337;42.850;-0.560;2024-02-21T01:56:23;0.57;;;0.30;;
85849;SDS011;76337;42.850;-0.560;2024-02-21T01:58:49;0.20;;;0.20;;
85849;SDS011;76337;42.850;-0.560;2024-02-21T02:01:16;0.63;;;0.28;;
85849;SDS011;76337;42.850;-0.560;2024-02-21T02:03:43;1.02;;;0.30;;
85849;SDS011;76337;42.850;-0.560;2024-02-21T02:06:10;0.63;;;0.38;;
85849;SDS011;76337;42.850;-0.560;2024-02-21T02:08:36;1.85;;;0.20;;
85849;SDS011;76337;42.850;-0.560;2024-02-21T02:11:02;0.28;;;0.25;;
85849;SDS011;76337;42.850;-0.560;2024-02-21T02:13:28;0.47;;;0.30;;
85849;SDS011;76337;42.850;-0.560;2024-02-21T02:15:54;0.65;;;0.30;;
85849;SDS011;76337;42.850;-0.560;2024-02-21T02:18:20;0.40;;;0.30;;
85849;SDS011;76337;42.850;-0.560;2024-02-21T02:20:47;0.30;;;0.20;;
85849;SDS011;76337;42.850;-0.560;2024-02-21T02:23:23;0.10;;;0.00;;
85849;SDS011;76337;42.850;-0.560;2024-02-21T02:25:51;0.43;;;0.20;;
85849;SDS011;76337;42.850;-0.560;2024-02-21T02:28:18;0.20;;;0.10;;
85849;SDS011;76337;42.850;-0.560;2024-02-21T02:30:46;1.98;;;0.40;;
85849;SDS011;76337;42.850;-0.560;2024-02-21T02:33:12;0.30;;;0.30;;
85849;SDS011;76337;42.850;-0.560;2024-02-21T02:35:39;0.50;;;0.25;;
85849;SDS011;76337;42.850;-0.560;2024-02-21T02:38:05;0.40;;;0.30;;
85849;SDS011;76337;42.850;-0.560;2024-02-21T02:40:33;0.20;;;0.20;;
85849;SDS011;76337;42.850;-0.560;2024-02-21T02:43:00;0.52;;;0.32;;
85849;SDS011;76337;42.850;-0.560;2024-02-21T02:45:26;0.40;;;0.30;;
85849;SDS011;76337;42.850;-0.560;2024-02-21T02:47:53;0.55;;;0.40;;
85849;SDS011;76337;42.850;-0.560;2024-02-21T02:50:20;1.00;;;0.45;;
85849;SDS011;76337;42.850;-0.560;2024-02-21T02:52:46;1.50;;;0.30;;
85849;SDS011;76337;42.850;-0.560;2024-02-21T02:55:13;1.45;;;0.30;;
85849;SDS011;76337;42.850;-0.560;2024-02-21T02:57:39;0.20;;;0.10;;
85849;SDS011;76337;42.850;-0.560;2024-02-21T03:00:08;0.52;;;0.30;;
85849;SDS011;76337;42.850;-0.560;2024-02-21T03:02:37;0.40;;;0.30;;
85849;SDS011;76337;42.850;-0.560;2024-02-21T03:05:13;0.38;;;0.10;;
85849;SDS011;76337;42.850;-0.560;2024-02-21T03:07:40;0.28;;;0.20;;
85849;SDS011;76337;42.850;-0.560;2024-02-21T03:10:08;0.68;;;0.38;;
85849;SDS011;76337;42.850;-0.560;2024-02-21T03:12:34;0.30;;;0.20;;
85849;SDS011;76337;42.850;-0.560;2024-02-21T03:15:01;0.30;;;0.20;;
85849;SDS011;76337;42.850;-0.560;2024-02-21T03:17:28;0.52;;;0.30;;
85849;SDS011;76337;42.850;-0.560;2024-02-21T03:19:54;0.55;;;0.20;;
85849;SDS011;76337;42.850;-0.560;2024-02-21T03:22:21;0.50;;;0.22;;
85849;SDS011;76337;42.850;-0.560;2024-02-21T03:24:49;0.60;;;0.30;;
85849;SDS011;76337;42.850;-0.560;2024-02-21T03:27:14;0.40;;;0.30;;
85849;SDS011;76337;42.850;-0.560;2024-02-21T03:29:40;0.63;;;0.30;;
85849;SDS011;76337;42.850;-0.560;2024-02-21T03:32:07;0.47;;;0.30;;
85849;SDS011;76337;42.850;-0.560;2024-02-21T03:34:33;0.30;;;0.20;;
85849;SDS011;76337;42.850;-0.560;2024-02-21T03:37:00;0.60;;;0.57;;
85849;SDS011;76337;42.850;-0.560;2024-02-21T03:39:27;0.28;;;0.10;;
85849;SDS011;76337;42.850;-0.560;2024-02-21T03:41:58;0.30;;;0.20;;
85849;SDS011;76337;42.850;-0.560;2024-02-21T03:44:30;0.90;;;0.40;;
85849;SDS011;76337;42.850;-0.560;2024-02-21T03:46:59;0.47;;;0.30;;
85849;SDS011;76337;42.850;-0.560;2024-02-21T03:49:25;0.40;;;0.30;;
85849;SDS011;76337;42.850;-0.560;2024-02-21T03:51:51;0.45;;;0.30;;
85849;SDS011;76337;42.850;-0.560;2024-02-21T03:54:19;0.20;;;0.20;;
85849;SDS011;76337;42.850;-0.560;2024-02-21T03:56:44;0.25;;;0.20;;
85849;SDS011;76337;42.850;-0.560;2024-02-21T03:59:14;0.43;;;0.30;;
85849;SDS011;76337;42.850;-0.560;2024-02-21T04:01:39;0.28;;;0.28;;
85849;SDS011;76337;42.850;-0.560;2024-02-21T04:04:06;0.77;;;0.50;;
85849;SDS011;76337;42.850;-0.560;2024-02-21T04:06:33;0.25;;;0.20;;
85849;SDS011;76337;42.850;-0.560;2024-02-21T04:08:59;0.30;;;0.28;;
85849;SDS011;76337;42.850;-0.560;2024-02-21T04:11:26;0.45;;;0.30;;
85849;SDS011;76337;42.850;-0.560;2024-02-21T04:13:51;0.15;;;0.15;;
85849;SDS011;76337;42.850;-0.560;2024-02-21T04:16:18;0.20;;;0.20;;
85849;SDS011;76337;42.850;-0.560;2024-02-21T04:18:45;0.32;;;0.30;;
85849;SDS011;76337;42.850;-0.560;2024-02-21T04:21:13;0.35;;;0.20;;
85849;SDS011;76337;42.850;-0.560;2024-02-21T04:23:42;0.30;;;0.20;;
85849;SDS011;76337;42.850;-0.560;2024-02-21T04:26:08;0.35;;;0.30;;
85849;SDS011;76337;42.850;-0.560;2024-02-21T04:28:35;0.98;;;0.30;;
85849;SDS011;76337;42.850;-0.560;2024-02-21T04:31:01;0.70;;;0.20;;
85849;SDS011;76337;42.850;-0.560;2024-02-21T04:33:27;0.13;;;0.10;;
85849;SDS011;76337;42.850;-0.560;2024-02-21T04:35:53;0.20;;;0.20;;
85849;SDS011;76337;42.850;-0.560;2024-02-21T04:38:20;0.20;;;0.20;;
85849;SDS011;76337;42.850;-0.560;2024-02-21T04:40:47;0.20;;;0.20;;
85849;SDS011;76337;42.850;-0.560;2024-02-21T04:43:14;0.68;;;0.50;;
85849;SDS011;76337;42.850;-0.560;2024-02-21T04:45:41;0.45;;;0.20;;
85849;SDS011;76337;42.850;-0.560;2024-02-21T04:48:08;0.30;;;0.20;;
85849;SDS011;76337;42.850;-0.560;2024-02-21T04:50:35;0.15;;;0.15;;
85849;SDS011;76337;42.850;-0.560;2024-02-21T04:53:01;0.10;;;0.10;;
85849;SDS011;76337;42.850;-0.560;2024-02-21T04:55:28;0.40;;;0.22;;
85849;SDS011;76337;42.850;-0.560;2024-02-21T04:57:55;0.25;;;0.20;;
85849;SDS011;76337;42.850;-0.560;2024-02-21T05:00:21;0.30;;;0.20;;
85849;SDS011;76337;42.850;-0.560;2024-02-21T05:02:48;0.20;;;0.20;;
85849;SDS011;76337;42.850;-0.560;2024-02-21T05:05:15;0.82;;;0.35;;
85849;SDS011;76337;42.850;-0.560;2024-02-21T05:07:43;0.70;;;0.35;;
85849;SDS011;76337;42.850;-0.560;2024-02-21T05:10:09;0.95;;;0.40;;
85849;SDS011;76337;42.850;-0.560;2024-02-21T05:12:36;0.45;;;0.30;;
85849;SDS011;76337;42.850;-0.560;2024-02-21T05:15:03;0.50;;;0.30;;
85849;SDS011;76337;42.850;-0.560;2024-02-21T05:17:30;0.55;;;0.30;;
85849;SDS011;76337;42.850;-0.560;2024-02-21T05:19:57;0.17;;;0.17;;
85849;SDS011;76337;42.850;-0.560;2024-02-21T05:22:24;0.38;;;0.28;;
85849;SDS011;76337;42.850;-0.560;2024-02-21T05:24:50;0.30;;;0.30;;
85849;SDS011;76337;42.850;-0.560;2024-02-21T05:27:17;0.32;;;0.20;;
85849;SDS011;76337;42.850;-0.560;2024-02-21T05:29:42;0.88;;;0.20;;
85849;SDS011;76337;42.850;-0.560;2024-02-21T05:32:09;0.20;;;0.10;;
85849;SDS011;76337;42.850;-0.560;2024-02-21T05:34:36;0.20;;;0.20;;
85849;SDS011;76337;42.850;-0.560;2024-02-21T05:37:02;0.35;;;0.22;;
85849;SDS011;76337;42.850;-0.560;2024-02-21T05:39:29;0.20;;;0.20;;
85849;SDS011;76337;42.850;-0.560;2024-02-21T05:41:56;0.40;;;0.30;;
85849;SDS011;76337;42.850;-0.560;2024-02-21T05:44:21;0.35;;;0.25;;
85849;SDS011;76337;42.850;-0.560;2024-02-21T05:46:48;0.75;;;0.30;;
85849;SDS011;76337;42.850;-0.560;2024-02-21T05:49:15;0.40;;;0.20;;
85849;SDS011;76337;42.850;-0.560;2024-02-21T05:51:41;1.65;;;0.13;;
85849;SDS011;76337;42.850;-0.560;2024-02-21T05:54:07;0.50;;;0.30;;
85849;SDS011;76337;42.850;-0.560;2024-02-21T05:56:34;0.35;;;0.25;;
85849;SDS011;76337;42.850;-0.560;2024-02-21T05:59:01;1.13;;;0.35;;
85849;SDS011;76337;42.850;-0.560;2024-02-21T06:01:27;0.30;;;0.30;;
85849;SDS011;76337;42.850;-0.560;2024-02-21T06:03:54;0.35;;;0.28;;
85849;SDS011;76337;42.850;-0.560;2024-02-21T06:06:20;0.40;;;0.28;;
85849;SDS011;76337;42.850;-0.560;2024-02-21T06:08:48;0.40;;;0.25;;
85849;SDS011;76337;42.850;-0.560;2024-02-21T06:11:14;0.50;;;0.20;;
85849;SDS011;76337;42.850;-0.560;2024-02-21T06:13:41;0.45;;;0.32;;
85849;SDS011;76337;42.850;-0.560;2024-02-21T06:16:08;0.63;;;0.30;;
85849;SDS011;76337;42.850;-0.560;2024-02-21T06:18:34;0.20;;;0.20;;
85849;SDS011;76337;42.850;-0.560;2024-02-21T06:21:02;0.30;;;0.20;;
85849;SDS011;76337;42.850;-0.560;2024-02-21T06:23:28;1.73;;;0.35;;
85849;SDS011;76337;42.850;-0.560;2024-02-21T06:25:55;0.40;;;0.40;;
85849;SDS011;76337;42.850;-0.560;2024-02-21T06:28:22;0.50;;;0.28;;
85849;SDS011;76337;42.850;-0.560;2024-02-21T06:30:47;0.47;;;0.30;;
85849;SDS011;76337;42.850;-0.560;2024-02-21T06:33:13;1.42;;;0.35;;
85849;SDS011;76337;42.850;-0.560;2024-02-21T06:35:39;0.50;;;0.30;;
85849;SDS011;76337;42.850;-0.560;2024-02-21T06:38:06;0.30;;;0.28;;
85849;SDS011;76337;42.850;-0.560;2024-02-21T06:40:32;0.40;;;0.20;;
85849;SDS011;76337;42.850;-0.560;2024-02-21T06:43:03;0.30;;;0.30;;
85849;SDS011;76337;42.850;-0.560;2024-02-21T06:45:29;0.40;;;0.30;;
85849;SDS011;76337;42.850;-0.560;2024-02-21T06:47:55;0.35;;;0.20;;
85849;SDS011;76337;42.850;-0.560;2024-02-21T06:50:21;0.28;;;0.28;;
85849;SDS011;76337;42.850;-0.560;2024-02-21T06:52:47;0.50;;;0.30;;
85849;SDS011;76337;42.850;-0.560;2024-02-21T06:55:12;0.40;;;0.20;;
85849;SDS011;76337;42.850;-0.560;2024-02-21T06:57:38;0.35;;;0.30;;
85849;SDS011;76337;42.850;-0.560;2024-02-21T07:00:04;2.30;;;0.30;;
85849;SDS011;76337;42.850;-0.560;2024-02-21T07:02:33;0.70;;;0.25;;
85849;SDS011;76337;42.850;-0.560;2024-02-21T07:05:00;0.20;;;0.20;;
85849;SDS011;76337;42.850;-0.560;2024-02-21T07:07:26;0.40;;;0.28;;
85849;SDS011;76337;42.850;-0.560;2024-02-21T07:09:51;0.20;;;0.20;;
85849;SDS011;76337;42.850;-0.560;2024-02-21T07:12:19;0.75;;;0.30;;
85849;SDS011;76337;42.850;-0.560;2024-02-21T07:14:44;0.17;;;0.17;;
85849;SDS011;76337;42.850;-0.560;2024-02-21T07:17:10;0.70;;;0.30;;
85849;SDS011;76337;42.850;-0.560;2024-02-21T07:19:36;0.20;;;0.20;;
85849;SDS011;76337;42.850;-0.560;2024-02-21T07:22:02;0.55;;;0.28;;
85849;SDS011;76337;42.850;-0.560;2024-02-21T07:24:28;0.43;;;0.22;;
85849;SDS011;76337;42.850;-0.560;2024-02-21T07:26:53;0.35;;;0.20;;
85849;SDS011;76337;42.850;-0.560;2024-02-21T07:29:19;0.50;;;0.30;;
85849;SDS011;76337;42.850;-0.560;2024-02-21T07:31:45;0.32;;;0.30;;
85849;SDS011;76337;42.850;-0.560;2024-02-21T07:34:11;0.28;;;0.20;;
85849;SDS011;76337;42.850;-0.560;2024-02-21T07:36:37;0.40;;;0.20;;
85849;SDS011;76337;42.850;-0.560;2024-02-21T07:39:04;0.20;;;0.20;;
85849;SDS011;76337;42.850;-0.560;2024-02-21T07:41:30;0.17;;;0.08;;
85849;SDS011;76337;42.850;-0.560;2024-02-21T07:43:55;0.60;;;0.38;;
85849;SDS011;76337;42.850;-0.560;2024-02-21T07:46:21;0.77;;;0.40;;
85849;SDS011;76337;42.850;-0.560;2024-02-21T07:48:47;0.55;;;0.30;;
85849;SDS011;76337;42.850;-0.560;2024-02-21T07:51:13;0.35;;;0.30;;
85849;SDS011;76337;42.850;-0.560;2024-02-21T07:53:39;0.50;;;0.20;;
85849;SDS011;76337;42.850;-0.560;2024-02-21T07:56:10;0.20;;;0.20;;
85849;SDS011;76337;42.850;-0.560;2024-02-21T07:58:36;0.50;;;0.30;;
85849;SDS011;76337;42.850;-0.560;2024-02-21T08:01:02;0.30;;;0.30;;
85849;SDS011;76337;42.850;-0.560;2024-02-21T08:03:28;0.30;;;0.22;;
85849;SDS011;76337;42.850;-0.560;2024-02-21T08:05:53;0.52;;;0.35;;
85849;SDS011;76337;42.850;-0.560;2024-02-21T08:08:19;0.90;;;0.25;;
85849;SDS011;76337;42.850;-0.560;2024-02-21T08:10:47;1.10;;;0.30;;
85849;SDS011;76337;42.850;-0.560;2024-02-21T08:13:14;1.25;;;0.45;;
85849;SDS011;76337;42.850;-0.560;2024-02-21T08:15:40;0.60;;;0.43;;
85849;SDS011;76337;42.850;-0.560;2024-02-21T08:18:07;0.60;;;0.40;;
85849;SDS011;76337;42.850;-0.560;2024-02-21T08:20:33;0.75;;;0.50;;
85849;SDS011;76337;42.850;-0.560;2024-02-21T08:22:59;0.20;;;0.20;;
85849;SDS011;76337;42.850;-0.560;2024-02-21T08:25:25;0.75;;;0.50;;
85849;SDS011;76337;42.850;-0.560;2024-02-21T08:27:51;0.57;;;0.50;;
85849;SDS011;76337;42.850;-0.560;2024-02-21T08:30:17;0.50;;;0.30;;
85849;SDS011;76337;42.850;-0.560;2024-02-21T08:32:43;0.73;;;0.60;;
85849;SDS011;76337;42.850;-0.560;2024-02-21T08:35:09;0.60;;;0.50;;
85849;SDS011;76337;42.850;-0.560;2024-02-21T08:37:34;0.85;;;0.45;;
85849;SDS011;76337;42.850;-0.560;2024-02-21T08:40:00;0.95;;;0.30;;
85849;SDS011;76337;42.850;-0.560;2024-02-21T08:42:34;1.10;;;1.10;;
85849;SDS011;76337;42.850;-0.560;2024-02-21T08:45:01;1.00;;;0.60;;
85849;SDS011;76337;42.850;-0.560;2024-02-21T08:47:27;0.68;;;0.50;;
85849;SDS011;76337;42.850;-0.560;2024-02-21T08:49:53;1.13;;;0.40;;
85849;SDS011;76337;42.850;-0.560;2024-02-21T08:52:19;0.70;;;0.30;;
85849;SDS011;76337;42.850;-0.560;2024-02-21T08:54:45;0.70;;;0.57;;
85849;SDS011;76337;42.850;-0.560;2024-02-21T08:57:10;0.63;;;0.50;;
85849;SDS011;76337;42.850;-0.560;2024-02-21T08:59:36;1.55;;;0.57;;
85849;SDS011;76337;42.850;-0.560;2024-02-21T09:02:02;0.98;;;0.88;;
85849;SDS011;76337;42.850;-0.560;2024-02-21T09:04:28;1.58;;;0.63;;
85849;SDS011;76337;42.850;-0.560;2024-02-21T09:06:54;1.58;;;1.20;;
85849;SDS011;76337;42.850;-0.560;2024-02-21T09:09:20;2.67;;;1.80;;
85849;SDS011;76337;42.850;-0.560;2024-02-21T09:11:46;1.00;;;0.60;;
85849;SDS011;76337;42.850;-0.560;2024-02-21T09:14:11;1.88;;;0.63;;
85849;SDS011;76337;42.850;-0.560;2024-02-21T09:16:37;0.88;;;0.50;;
85849;SDS011;76337;42.850;-0.560;2024-02-21T09:19:03;0.70;;;0.50;;
85849;SDS011;76337;42.850;-0.560;2024-02-21T09:21:29;0.70;;;0.32;;
85849;SDS011;76337;42.850;-0.560;2024-02-21T09:23:54;0.20;;;0.20;;
85849;SDS011;76337;42.850;-0.560;2024-02-21T09:26:20;0.98;;;0.40;;
85849;SDS011;76337;42.850;-0.560;2024-02-21T09:28:46;0.73;;;0.50;;
85849;SDS011;76337;42.850;-0.560;2024-02-21T09:31:12;0.98;;;0.57;;
85849;SDS011;76337;42.850;-0.560;2024-02-21T09:33:37;1.30;;;0.70;;
85849;SDS011;76337;42.850;-0.560;2024-02-21T09:36:04;0.75;;;0.50;;
85849;SDS011;76337;42.850;-0.560;2024-02-21T09:38:31;0.80;;;0.50;;
85849;SDS011;76337;42.850;-0.560;2024-02-21T09:40:59;0.65;;;0.30;;
85849;SDS011;76337;42.850;-0.560;2024-02-21T09:43:26;0.90;;;0.40;;
85849;SDS011;76337;42.850;-0.560;2024-02-21T09:45:53;0.85;;;0.28;;
85849;SDS011;76337;42.850;-0.560;2024-02-21T09:48:25;0.80;;;0.50;;
85849;SDS011;76337;42.850;-0.560;2024-02-21T09:50:58;0.55;;;0.20;;
85849;SDS011;76337;42.850;-0.560;2024-02-21T09:53:25;0.57;;;0.43;;
85849;SDS011;76337;42.850;-0.560;2024-02-21T09:55:52;0.88;;;0.50;;
85849;SDS011;76337;42.850;-0.560;2024-02-21T09:58:18;0.60;;;0.40;;
85849;SDS011;76337;42.850;-0.560;2024-02-21T10:00:44;0.73;;;0.40;;
85849;SDS011;76337;42.850;-0.560;2024-02-21T10:03:10;0.95;;;0.45;;
85849;SDS011;76337;42.850;-0.560;2024-02-21T10:05:36;2.22;;;0.70;;
85849;SDS011;76337;42.850;-0.560;2024-02-21T10:08:02;0.30;;;0.20;;
85849;SDS011;76337;42.850;-0.560;2024-02-21T10:10:29;0.20;;;0.20;;
85849;SDS011;76337;42.850;-0.560;2024-02-21T10:12:55;1.02;;;0.50;;
85849;SDS011;76337;42.850;-0.560;2024-02-21T10:15:23;1.23;;;0.50;;
85849;SDS011;76337;42.850;-0.560;2024-02-21T10:18:04;0.22;;;0.20;;
85849;SDS011;76337;42.850;-0.560;2024-02-21T10:20:32;0.73;;;0.35;;
85849;SDS011;76337;42.850;-0.560;2024-02-21T10:23:00;0.43;;;0.20;;
85849;SDS011;76337;42.850;-0.560;2024-02-21T10:25:28;0.70;;;0.40;;
85849;SDS011;76337;42.850;-0.560;2024-02-21T10:27:55;0.40;;;0.20;;
85849;SDS011;76337;42.850;-0.560;2024-02-21T10:30:22;0.45;;;0.30;;
85849;SDS011;76337;42.850;-0.560;2024-02-21T10:32:51;0.70;;;0.45;;
85849;SDS011;76337;42.850;-0.560;2024-02-21T10:35:26;1.30;;;0.40;;
85849;SDS011;76337;42.850;-0.560;2024-02-21T10:37:53;0.70;;;0.40;;
85849;SDS011;76337;42.850;-0.560;2024-02-21T10:40:23;0.77;;;0.43;;
85849;SDS011;76337;42.850;-0.560;2024-02-21T10:42:51;1.33;;;0.55;;
85849;SDS011;76337;42.850;-0.560;2024-02-21T10:45:23;0.40;;;0.40;;
85849;SDS011;76337;42.850;-0.560;2024-02-21T10:47:55;0.85;;;0.47;;
85849;SDS011;76337;42.850;-0.560;2024-02-21T10:50:26;0.75;;;0.50;;
85849;SDS011;76337;42.850;-0.560;2024-02-21T10:53:01;0.52;;;0.40;;
85849;SDS011;76337;42.850;-0.560;2024-02-21T10:55:38;0.65;;;0.40;;
85849;SDS011;76337;42.850;-0.560;2024-02-21T10:58:07;0.45;;;0.35;;
85849;SDS011;76337;42.850;-0.560;2024-02-21T11:00:36;1.45;;;0.30;;
85849;SDS011;76337;42.850;-0.560;2024-02-21T11:03:02;0.38;;;0.20;;
85849;SDS011;76337;42.850;-0.560;2024-02-21T11:05:28;1.00;;;0.57;;
85849;SDS011;76337;42.850;-0.560;2024-02-21T11:07:56;0.70;;;0.40;;
85849;SDS011;76337;42.850;-0.560;2024-02-21T11:10:23;1.75;;;0.57;;
85849;SDS011;76337;42.850;-0.560;2024-02-21T11:12:52;0.50;;;0.40;;
85849;SDS011;76337;42.850;-0.560;2024-02-21T11:15:30;0.60;;;0.30;;
85849;SDS011;76337;42.850;-0.560;2024-02-21T11:17:56;1.73;;;0.50;;
85849;SDS011;76337;42.850;-0.560;2024-02-21T11:20:31;0.98;;;0.60;;
85849;SDS011;76337;42.850;-0.560;2024-02-21T11:23:01;1.10;;;0.60;;
85849;SDS011;76337;42.850;-0.560;2024-02-21T11:25:27;1.65;;;0.68;;
85849;SDS011;76337;42.850;-0.560;2024-02-21T11:27:59;0.82;;;0.50;;
85849;SDS011;76337;42.850;-0.560;2024-02-21T11:30:31;0.95;;;0.57;;
85849;SDS011;76337;42.850;-0.560;2024-02-21T11:32:59;2.05;;;0.50;;
85849;SDS011;76337;42.850;-0.560;2024-02-21T11:35:26;0.85;;;0.50;;
85849;SDS011;76337;42.850;-0.560;2024-02-21T11:38:07;0.93;;;0.63;;
85849;SDS011;76337;42.850;-0.560;2024-02-21T11:40:34;0.82;;;0.55;;
85849;SDS011;76337;42.850;-0.560;2024-02-21T11:43:00;0.93;;;0.22;;
85849;SDS011;76337;42.850;-0.560;2024-02-21T11:45:26;0.93;;;0.55;;
85849;SDS011;76337;42.850;-0.560;2024-02-21T11:47:52;0.75;;;0.30;;
85849;SDS011;76337;42.850;-0.560;2024-02-21T11:50:18;0.90;;;0.50;;
85849;SDS011;76337;42.850;-0.560;2024-02-21T11:52:44;1.20;;;0.85;;
85849;SDS011;76337;42.850;-0.560;2024-02-21T11:55:10;0.73;;;0.50;;
85849;SDS011;76337;42.850;-0.560;2024-02-21T11:57:37;0.88;;;0.50;;
85849;SDS011;76337;42.850;-0.560;2024-02-21T12:00:12;0.68;;;0.38;;
85849;SDS011;76337;42.850;-0.560;2024-02-21T12:02:40;1.17;;;0.63;;
85849;SDS011;76337;42.850;-0.560;2024-02-21T12:05:07;0.77;;;0.52;;
85849;SDS011;76337;42.850;-0.560;2024-02-21T12:07:33;0.52;;;0.35;;
85849;SDS011;76337;42.850;-0.560;2024-02-21T12:10:01;1.00;;;0.50;;
85849;SDS011;76337;42.850;-0.560;2024-02-21T12:12:28;0.85;;;0.55;;
85849;SDS011;76337;42.850;-0.560;2024-02-21T12:14:55;0.80;;;0.50;;
85849;SDS011;76337;42.850;-0.560;2024-02-21T12:17:23;0.80;;;0.50;;
85849;SDS011;76337;42.850;-0.560;2024-02-21T12:19:50;0.63;;;0.30;;
85849;SDS011;76337;42.850;-0.560;2024-02-21T12:22:18;1.05;;;0.50;;
85849;SDS011;76337;42.850;-0.560;2024-02-21T12:24:44;1.08;;;0.50;;
85849;SDS011;76337;42.850;-0.560;2024-02-21T12:27:13;1.08;;;0.50;;
85849;SDS011;76337;42.850;-0.560;2024-02-21T12:29:39;0.40;;;0.20;;
85849;SDS011;76337;42.850;-0.560;2024-02-21T12:32:05;1.02;;;0.55;;
85849;SDS011;76337;42.850;-0.560;2024-02-21T12:34:31;0.90;;;0.40;;
85849;SDS011;76337;42.850;-0.560;2024-02-21T12:36:58;0.85;;;0.50;;
85849;SDS011;76337;42.850;-0.560;2024-02-21T12:39:24;0.60;;;0.50;;
85849;SDS011;76337;42.850;-0.560;2024-02-21T12:41:53;0.80;;;0.40;;
85849;SDS011;76337;42.850;-0.560;2024-02-21T12:44:22;0.80;;;0.40;;
85849;SDS011;76337;42.850;-0.560;2024-02-21T12:46:49;0.90;;;0.40;;
85849;SDS011;76337;42.850;-0.560;2024-02-21T12:49:17;0.55;;;0.25;;
85849;SDS011;76337;42.850;-0.560;2024-02-21T12:51:43;0.85;;;0.43;;
85849;SDS011;76337;42.850;-0.560;2024-02-21T12:54:12;0.60;;;0.50;;
85849;SDS011;76337;42.850;-0.560;2024-02-21T12:56:38;0.60;;;0.43;;
85849;SDS011;76337;42.850;-0.560;2024-02-21T12:59:05;0.38;;;0.20;;
85849;SDS011;76337;42.850;-0.560;2024-02-21T13:04:02;0.60;;;0.40;;
85849;SDS011;76337;42.850;-0.560;2024-02-21T13:06:28;0.90;;;0.50;;
85849;SDS011;76337;42.850;-0.560;2024-02-21T13:08:54;1.60;;;0.60;;
85849;SDS011;76337;42.850;-0.560;2024-02-21T13:11:20;1.20;;;0.73;;
85849;SDS011;76337;42.850;-0.560;2024-02-21T13:13:46;2.78;;;2.42;;
85849;SDS011;76337;42.850;-0.560;2024-02-21T13:16:11;12.48;;;9.35;;
85849;SDS011;76337;42.850;-0.560;2024-02-21T13:18:37;11.73;;;8.10;;
85849;SDS011;76337;42.850;-0.560;2024-02-21T13:21:04;8.98;;;6.03;;
85849;SDS011;76337;42.850;-0.560;2024-02-21T13:23:30;5.45;;;3.05;;
85849;SDS011;76337;42.850;-0.560;2024-02-21T13:25:56;3.58;;;2.78;;
85849;SDS011;76337;42.850;-0.560;2024-02-21T13:28:22;5.15;;;3.17;;
85849;SDS011;76337;42.850;-0.560;2024-02-21T13:30:48;5.05;;;3.33;;
85849;SDS011;76337;42.850;-0.560;2024-02-21T13:33:13;5.57;;;3.47;;
85849;SDS011;76337;42.850;-0.560;2024-02-21T13:35:39;4.72;;;2.70;;
85849;SDS011;76337;42.850;-0.560;2024-02-21T13:38:06;4.05;;;3.17;;
85849;SDS011;76337;42.850;-0.560;2024-02-21T13:40:32;5.05;;;2.70;;
85849;SDS011;76337;42.850;-0.560;2024-02-21T13:42:58;4.63;;;2.58;;
85849;SDS011;76337;42.850;-0.560;2024-02-21T13:45:24;5.43;;;2.40;;
85849;SDS011;76337;42.850;-0.560;2024-02-21T13:47:50;2.75;;;2.10;;
85849;SDS011;76337;42.850;-0.560;2024-02-21T13:50:16;3.85;;;2.35;;
85849;SDS011;76337;42.850;-0.560;2024-02-21T13:52:46;9.20;;;5.20;;
85849;SDS011;76337;42.850;-0.560;2024-02-21T13:55:16;9.18;;;6.30;;
85849;SDS011;76337;42.850;-0.560;2024-02-21T13:57:41;6.63;;;4.32;;
85849;SDS011;76337;42.850;-0.560;2024-02-21T14:00:07;6.63;;;2.72;;
85849;SDS011;76337;42.850;-0.560;2024-02-21T14:02:36;2.63;;;1.40;;
85849;SDS011;76337;42.850;-0.560;2024-02-21T14:05:02;2.08;;;1.10;;
85849;SDS011;76337;42.850;-0.560;2024-02-21T14:07:31;3.63;;;1.10;;
85849;SDS011;76337;42.850;-0.560;2024-02-21T14:09:58;3.17;;;1.20;;
85849;SDS011;76337;42.850;-0.560;2024-02-21T14:12:24;3.63;;;1.75;;
85849;SDS011;76337;42.850;-0.560;2024-02-21T14:14:50;5.55;;;2.92;;
85849;SDS011;76337;42.850;-0.560;2024-02-21T14:17:17;6.13;;;3.22;;
85849;SDS011;76337;42.850;-0.560;2024-02-21T14:19:43;4.40;;;1.90;;
85849;SDS011;76337;42.850;-0.560;2024-02-21T14:22:09;7.72;;;6.07;;
85849;SDS011;76337;42.850;-0.560;2024-02-21T14:24:36;18.45;;;12.80;;
85849;SDS011;76337;42.850;-0.560;2024-02-21T14:27:02;19.63;;;15.98;;
85849;SDS011;76337;42.850;-0.560;2024-02-21T14:29:28;22.58;;;16.88;;
85849;SDS011;76337;42.850;-0.560;2024-02-21T14:31:54;25.15;;;16.92;;
85849;SDS011;76337;42.850;-0.560;2024-02-21T14:34:20;21.23;;;17.42;;